sensor_id;sensor_type;location;lat;lon;timestamp;P1;durP1;ratioP1;P2;durP2;ratioP2
6864;SDS011;3471;49.678;8.388;2023-04-24T00:00:23;2.10;;;1.50;;
6864;SDS011;3471;49.678;8.388;2023-04-24T00:02:50;1.83;;;1.48;;
6864;SDS011;3471;49.678;8.388;2023-04-24T00:05:15;4.07;;;1.50;;
6864;SDS011;3471;49.678;8.388;2023-04-24T00:07:42;2.40;;;1.10;;
6864;SDS011;3471;49.678;8.388;2023-04-24T00:10:09;1.90;;;1.10;;
6864;SDS011;3471;49.678;8.388;2023-04-24T00:12:35;1.40;;;1.00;;
6864;SDS011;3471;49.678;8.388;2023-04-24T00:15:01;3.03;;;1.63;;
6864;SDS011;3471;49.678;8.388;2023-04-24T00:17:27;7.90;;;2.20;;
6864;SDS011;3471;49.678;8.388;2023-04-24T00:19:52;4.03;;;1.67;;
6864;SDS011;3471;49.678;8.388;2023-04-24T00:22:27;2.10;;;1.70;;
6864;SDS011;3471;49.678;8.388;2023-04-24T00:24:53;3.30;;;1.65;;
6864;SDS011;3471;49.678;8.388;2023-04-24T00:27:19;3.90;;;1.83;;
6864;SDS011;3471;49.678;8.388;2023-04-24T00:29:45;2.90;;;1.33;;
6864;SDS011;3471;49.678;8.388;2023-04-24T00:32:11;1.80;;;1.00;;
6864;SDS011;3471;49.678;8.388;2023-04-24T00:34:37;1.80;;;1.40;;
6864;SDS011;3471;49.678;8.388;2023-04-24T00:37:02;2.70;;;1.00;;
6864;SDS011;3471;49.678;8.388;2023-04-24T00:39:28;1.98;;;1.65;;
6864;SDS011;3471;49.678;8.388;2023-04-24T00:41:54;1.60;;;0.90;;
6864;SDS011;3471;49.678;8.388;2023-04-24T00:44:20;1.90;;;1.40;;
6864;SDS011;3471;49.678;8.388;2023-04-24T00:46:45;3.40;;;1.40;;
6864;SDS011;3471;49.678;8.388;2023-04-24T00:49:12;1.40;;;0.90;;
6864;SDS011;3471;49.678;8.388;2023-04-24T00:51:38;1.60;;;1.20;;
6864;SDS011;3471;49.678;8.388;2023-04-24T00:54:05;3.38;;;1.90;;
6864;SDS011;3471;49.678;8.388;2023-04-24T00:56:31;3.93;;;1.20;;
6864;SDS011;3471;49.678;8.388;2023-04-24T00:58:56;4.17;;;1.77;;
6864;SDS011;3471;49.678;8.388;2023-04-24T01:01:23;8.20;;;2.25;;
6864;SDS011;3471;49.678;8.388;2023-04-24T01:03:49;1.58;;;1.17;;
6864;SDS011;3471;49.678;8.388;2023-04-24T01:06:16;1.70;;;1.30;;
6864;SDS011;3471;49.678;8.388;2023-04-24T01:08:43;1.90;;;1.30;;
6864;SDS011;3471;49.678;8.388;2023-04-24T01:11:10;2.75;;;1.30;;
6864;SDS011;3471;49.678;8.388;2023-04-24T01:13:36;4.53;;;0.90;;
6864;SDS011;3471;49.678;8.388;2023-04-24T01:16:02;2.88;;;1.38;;
6864;SDS011;3471;49.678;8.388;2023-04-24T01:18:27;1.50;;;0.80;;
6864;SDS011;3471;49.678;8.388;2023-04-24T01:20:54;2.42;;;1.20;;
6864;SDS011;3471;49.678;8.388;2023-04-24T01:23:23;4.30;;;1.63;;
6864;SDS011;3471;49.678;8.388;2023-04-24T01:25:48;5.90;;;1.10;;
6864;SDS011;3471;49.678;8.388;2023-04-24T01:28:15;3.90;;;1.30;;
6864;SDS011;3471;49.678;8.388;2023-04-24T01:30:41;1.80;;;1.30;;
6864;SDS011;3471;49.678;8.388;2023-04-24T01:33:07;1.98;;;1.45;;
6864;SDS011;3471;49.678;8.388;2023-04-24T01:35:33;2.30;;;1.70;;
6864;SDS011;3471;49.678;8.388;2023-04-24T01:38:01;2.08;;;1.80;;
6864;SDS011;3471;49.678;8.388;2023-04-24T01:40:26;3.10;;;1.60;;
6864;SDS011;3471;49.678;8.388;2023-04-24T01:42:52;4.80;;;1.60;;
6864;SDS011;3471;49.678;8.388;2023-04-24T01:45:18;2.40;;;1.00;;
6864;SDS011;3471;49.678;8.388;2023-04-24T01:47:44;2.10;;;1.00;;
6864;SDS011;3471;49.678;8.388;2023-04-24T01:50:11;1.58;;;0.85;;
6864;SDS011;3471;49.678;8.388;2023-04-24T01:52:36;1.50;;;1.00;;
6864;SDS011;3471;49.678;8.388;2023-04-24T01:55:03;9.00;;;1.13;;
6864;SDS011;3471;49.678;8.388;2023-04-24T01:57:30;1.60;;;0.82;;
6864;SDS011;3471;49.678;8.388;2023-04-24T01:59:56;2.85;;;1.45;;
6864;SDS011;3471;49.678;8.388;2023-04-24T02:02:22;4.80;;;1.90;;
6864;SDS011;3471;49.678;8.388;2023-04-24T02:04:49;2.67;;;1.55;;
6864;SDS011;3471;49.678;8.388;2023-04-24T02:07:15;1.60;;;1.23;;
6864;SDS011;3471;49.678;8.388;2023-04-24T02:09:41;1.60;;;1.30;;
6864;SDS011;3471;49.678;8.388;2023-04-24T02:12:06;6.32;;;2.00;;
6864;SDS011;3471;49.678;8.388;2023-04-24T02:14:32;6.80;;;1.50;;
6864;SDS011;3471;49.678;8.388;2023-04-24T02:16:58;1.83;;;1.33;;
6864;SDS011;3471;49.678;8.388;2023-04-24T02:19:23;3.30;;;2.17;;
6864;SDS011;3471;49.678;8.388;2023-04-24T02:21:49;2.35;;;1.80;;
6864;SDS011;3471;49.678;8.388;2023-04-24T02:24:15;7.90;;;2.37;;
6864;SDS011;3471;49.678;8.388;2023-04-24T02:26:41;3.30;;;1.63;;
6864;SDS011;3471;49.678;8.388;2023-04-24T02:29:06;7.10;;;2.53;;
6864;SDS011;3471;49.678;8.388;2023-04-24T02:31:32;4.03;;;1.83;;
6864;SDS011;3471;49.678;8.388;2023-04-24T02:33:57;2.90;;;1.90;;
6864;SDS011;3471;49.678;8.388;2023-04-24T02:36:23;2.70;;;1.42;;
6864;SDS011;3471;49.678;8.388;2023-04-24T02:38:48;1.70;;;1.60;;
6864;SDS011;3471;49.678;8.388;2023-04-24T02:41:14;2.30;;;1.80;;
6864;SDS011;3471;49.678;8.388;2023-04-24T02:43:39;2.70;;;1.83;;
6864;SDS011;3471;49.678;8.388;2023-04-24T02:46:05;1.80;;;1.40;;
6864;SDS011;3471;49.678;8.388;2023-04-24T02:48:31;3.33;;;1.40;;
6864;SDS011;3471;49.678;8.388;2023-04-24T02:50:56;1.50;;;1.20;;
6864;SDS011;3471;49.678;8.388;2023-04-24T02:53:22;1.40;;;0.90;;
6864;SDS011;3471;49.678;8.388;2023-04-24T02:55:48;2.50;;;1.40;;
6864;SDS011;3471;49.678;8.388;2023-04-24T02:58:14;1.83;;;1.37;;
6864;SDS011;3471;49.678;8.388;2023-04-24T03:00:39;2.80;;;1.73;;
6864;SDS011;3471;49.678;8.388;2023-04-24T03:03:05;1.60;;;1.30;;
6864;SDS011;3471;49.678;8.388;2023-04-24T03:05:31;1.50;;;1.10;;
6864;SDS011;3471;49.678;8.388;2023-04-24T03:07:57;2.60;;;1.50;;
6864;SDS011;3471;49.678;8.388;2023-04-24T03:10:23;1.93;;;1.20;;
6864;SDS011;3471;49.678;8.388;2023-04-24T03:12:48;1.50;;;1.20;;
6864;SDS011;3471;49.678;8.388;2023-04-24T03:15:14;1.60;;;1.00;;
6864;SDS011;3471;49.678;8.388;2023-04-24T03:17:40;3.47;;;1.63;;
6864;SDS011;3471;49.678;8.388;2023-04-24T03:20:06;6.70;;;2.50;;
6864;SDS011;3471;49.678;8.388;2023-04-24T03:22:33;1.40;;;1.10;;
6864;SDS011;3471;49.678;8.388;2023-04-24T03:24:59;3.40;;;1.50;;
6864;SDS011;3471;49.678;8.388;2023-04-24T03:27:24;2.10;;;1.60;;
6864;SDS011;3471;49.678;8.388;2023-04-24T03:29:50;4.00;;;1.70;;
6864;SDS011;3471;49.678;8.388;2023-04-24T03:32:20;2.03;;;1.40;;
6864;SDS011;3471;49.678;8.388;2023-04-24T03:34:47;2.10;;;1.70;;
6864;SDS011;3471;49.678;8.388;2023-04-24T03:37:13;3.40;;;1.88;;
6864;SDS011;3471;49.678;8.388;2023-04-24T03:39:39;3.47;;;2.22;;
6864;SDS011;3471;49.678;8.388;2023-04-24T03:42:05;4.83;;;2.90;;
6864;SDS011;3471;49.678;8.388;2023-04-24T03:44:30;6.57;;;3.10;;
6864;SDS011;3471;49.678;8.388;2023-04-24T03:46:57;3.95;;;2.38;;
6864;SDS011;3471;49.678;8.388;2023-04-24T03:49:23;1.83;;;1.60;;
6864;SDS011;3471;49.678;8.388;2023-04-24T03:51:48;2.45;;;1.50;;
6864;SDS011;3471;49.678;8.388;2023-04-24T03:54:14;3.70;;;2.90;;
6864;SDS011;3471;49.678;8.388;2023-04-24T03:56:39;2.63;;;2.43;;
6864;SDS011;3471;49.678;8.388;2023-04-24T03:59:05;3.77;;;3.13;;
6864;SDS011;3471;49.678;8.388;2023-04-24T04:01:31;7.90;;;1.90;;
6864;SDS011;3471;49.678;8.388;2023-04-24T04:03:56;5.38;;;2.95;;
6864;SDS011;3471;49.678;8.388;2023-04-24T04:06:22;14.13;;;2.80;;
6864;SDS011;3471;49.678;8.388;2023-04-24T04:08:47;3.97;;;2.60;;
6864;SDS011;3471;49.678;8.388;2023-04-24T04:11:13;3.57;;;2.03;;
6864;SDS011;3471;49.678;8.388;2023-04-24T04:13:38;2.53;;;2.10;;
6864;SDS011;3471;49.678;8.388;2023-04-24T04:16:04;7.53;;;2.33;;
6864;SDS011;3471;49.678;8.388;2023-04-24T04:18:30;5.55;;;3.55;;
6864;SDS011;3471;49.678;8.388;2023-04-24T04:20:55;3.25;;;2.60;;
6864;SDS011;3471;49.678;8.388;2023-04-24T04:23:22;5.40;;;3.20;;
6864;SDS011;3471;49.678;8.388;2023-04-24T04:25:47;2.80;;;2.53;;
6864;SDS011;3471;49.678;8.388;2023-04-24T04:28:14;3.85;;;3.13;;
6864;SDS011;3471;49.678;8.388;2023-04-24T04:30:40;4.60;;;2.90;;
6864;SDS011;3471;49.678;8.388;2023-04-24T04:33:06;3.22;;;2.92;;
6864;SDS011;3471;49.678;8.388;2023-04-24T04:35:33;4.35;;;2.95;;
6864;SDS011;3471;49.678;8.388;2023-04-24T04:37:58;2.50;;;2.30;;
6864;SDS011;3471;49.678;8.388;2023-04-24T04:40:24;2.88;;;2.67;;
6864;SDS011;3471;49.678;8.388;2023-04-24T04:42:49;4.53;;;3.90;;
6864;SDS011;3471;49.678;8.388;2023-04-24T04:45:17;3.08;;;2.55;;
6864;SDS011;3471;49.678;8.388;2023-04-24T04:47:43;20.17;;;4.10;;
6864;SDS011;3471;49.678;8.388;2023-04-24T04:50:09;8.85;;;3.47;;
6864;SDS011;3471;49.678;8.388;2023-04-24T04:52:35;3.90;;;3.00;;
6864;SDS011;3471;49.678;8.388;2023-04-24T04:55:01;3.80;;;3.50;;
6864;SDS011;3471;49.678;8.388;2023-04-24T04:57:27;3.03;;;2.72;;
6864;SDS011;3471;49.678;8.388;2023-04-24T04:59:52;3.88;;;3.53;;
6864;SDS011;3471;49.678;8.388;2023-04-24T05:02:18;9.70;;;4.65;;
6864;SDS011;3471;49.678;8.388;2023-04-24T05:04:44;6.47;;;3.60;;
6864;SDS011;3471;49.678;8.388;2023-04-24T05:07:10;5.47;;;4.20;;
6864;SDS011;3471;49.678;8.388;2023-04-24T05:09:36;3.50;;;3.20;;
6864;SDS011;3471;49.678;8.388;2023-04-24T05:12:02;3.43;;;3.13;;
6864;SDS011;3471;49.678;8.388;2023-04-24T05:14:28;6.10;;;4.50;;
6864;SDS011;3471;49.678;8.388;2023-04-24T05:16:53;8.00;;;4.10;;
6864;SDS011;3471;49.678;8.388;2023-04-24T05:19:19;9.55;;;3.40;;
6864;SDS011;3471;49.678;8.388;2023-04-24T05:21:44;4.00;;;3.40;;
6864;SDS011;3471;49.678;8.388;2023-04-24T05:24:10;3.73;;;2.83;;
6864;SDS011;3471;49.678;8.388;2023-04-24T05:26:36;3.78;;;3.47;;
6864;SDS011;3471;49.678;8.388;2023-04-24T05:29:02;10.27;;;4.00;;
6864;SDS011;3471;49.678;8.388;2023-04-24T05:31:27;3.53;;;3.03;;
6864;SDS011;3471;49.678;8.388;2023-04-24T05:33:53;4.18;;;3.63;;
6864;SDS011;3471;49.678;8.388;2023-04-24T05:36:19;3.10;;;2.27;;
6864;SDS011;3471;49.678;8.388;2023-04-24T05:38:44;5.25;;;3.08;;
6864;SDS011;3471;49.678;8.388;2023-04-24T05:41:10;3.22;;;2.90;;
6864;SDS011;3471;49.678;8.388;2023-04-24T05:43:36;2.80;;;2.53;;
6864;SDS011;3471;49.678;8.388;2023-04-24T05:46:01;3.17;;;2.97;;
6864;SDS011;3471;49.678;8.388;2023-04-24T05:48:27;3.80;;;3.10;;
6864;SDS011;3471;49.678;8.388;2023-04-24T05:50:52;10.48;;;3.65;;
6864;SDS011;3471;49.678;8.388;2023-04-24T05:53:18;4.30;;;3.67;;
6864;SDS011;3471;49.678;8.388;2023-04-24T05:55:44;6.38;;;3.63;;
6864;SDS011;3471;49.678;8.388;2023-04-24T05:58:10;5.47;;;3.83;;
6864;SDS011;3471;49.678;8.388;2023-04-24T06:00:36;4.53;;;4.13;;
6864;SDS011;3471;49.678;8.388;2023-04-24T06:03:04;4.40;;;4.00;;
6864;SDS011;3471;49.678;8.388;2023-04-24T06:05:30;4.05;;;3.60;;
6864;SDS011;3471;49.678;8.388;2023-04-24T06:07:56;5.77;;;4.80;;
6864;SDS011;3471;49.678;8.388;2023-04-24T06:10:21;6.10;;;4.50;;
6864;SDS011;3471;49.678;8.388;2023-04-24T06:12:47;5.50;;;5.05;;
6864;SDS011;3471;49.678;8.388;2023-04-24T06:15:12;5.47;;;4.57;;
6864;SDS011;3471;49.678;8.388;2023-04-24T06:17:38;10.33;;;4.20;;
6864;SDS011;3471;49.678;8.388;2023-04-24T06:20:04;5.93;;;5.17;;
6864;SDS011;3471;49.678;8.388;2023-04-24T06:22:31;5.65;;;4.80;;
6864;SDS011;3471;49.678;8.388;2023-04-24T06:24:57;12.10;;;5.17;;
6864;SDS011;3471;49.678;8.388;2023-04-24T06:27:22;5.33;;;4.50;;
6864;SDS011;3471;49.678;8.388;2023-04-24T06:29:48;6.37;;;4.40;;
6864;SDS011;3471;49.678;8.388;2023-04-24T06:32:20;4.20;;;3.70;;
6864;SDS011;3471;49.678;8.388;2023-04-24T06:34:47;5.63;;;4.80;;
6864;SDS011;3471;49.678;8.388;2023-04-24T06:37:12;6.82;;;5.20;;
6864;SDS011;3471;49.678;8.388;2023-04-24T06:39:38;5.53;;;4.80;;
6864;SDS011;3471;49.678;8.388;2023-04-24T06:42:04;8.00;;;5.43;;
6864;SDS011;3471;49.678;8.388;2023-04-24T06:44:30;8.53;;;5.03;;
6864;SDS011;3471;49.678;8.388;2023-04-24T06:46:55;5.72;;;4.68;;
6864;SDS011;3471;49.678;8.388;2023-04-24T06:49:21;12.23;;;4.82;;
6864;SDS011;3471;49.678;8.388;2023-04-24T06:51:46;9.20;;;4.97;;
6864;SDS011;3471;49.678;8.388;2023-04-24T06:54:12;7.83;;;5.70;;
6864;SDS011;3471;49.678;8.388;2023-04-24T06:56:38;3.60;;;3.30;;
6864;SDS011;3471;49.678;8.388;2023-04-24T06:59:03;6.07;;;4.05;;
6864;SDS011;3471;49.678;8.388;2023-04-24T07:01:29;4.32;;;3.65;;
6864;SDS011;3471;49.678;8.388;2023-04-24T07:03:54;3.65;;;3.40;;
6864;SDS011;3471;49.678;8.388;2023-04-24T07:06:20;3.97;;;3.67;;
6864;SDS011;3471;49.678;8.388;2023-04-24T07:08:47;8.50;;;4.13;;
6864;SDS011;3471;49.678;8.388;2023-04-24T07:11:13;4.90;;;4.50;;
6864;SDS011;3471;49.678;8.388;2023-04-24T07:13:39;5.97;;;3.83;;
6864;SDS011;3471;49.678;8.388;2023-04-24T07:16:06;4.50;;;4.10;;
6864;SDS011;3471;49.678;8.388;2023-04-24T07:18:33;4.40;;;3.78;;
6864;SDS011;3471;49.678;8.388;2023-04-24T07:20:58;3.42;;;3.13;;
6864;SDS011;3471;49.678;8.388;2023-04-24T07:23:24;5.70;;;4.00;;
6864;SDS011;3471;49.678;8.388;2023-04-24T07:25:50;4.22;;;3.60;;
6864;SDS011;3471;49.678;8.388;2023-04-24T07:28:15;7.53;;;2.80;;
6864;SDS011;3471;49.678;8.388;2023-04-24T07:30:42;5.05;;;3.17;;
6864;SDS011;3471;49.678;8.388;2023-04-24T07:33:08;2.67;;;2.47;;
6864;SDS011;3471;49.678;8.388;2023-04-24T07:35:36;3.28;;;2.40;;
6864;SDS011;3471;49.678;8.388;2023-04-24T07:38:01;7.53;;;3.38;;
6864;SDS011;3471;49.678;8.388;2023-04-24T07:40:27;2.40;;;1.83;;
6864;SDS011;3471;49.678;8.388;2023-04-24T07:42:53;5.80;;;2.40;;
6864;SDS011;3471;49.678;8.388;2023-04-24T07:45:18;2.67;;;2.47;;
6864;SDS011;3471;49.678;8.388;2023-04-24T07:47:44;2.05;;;1.88;;
6864;SDS011;3471;49.678;8.388;2023-04-24T07:50:10;3.10;;;2.35;;
6864;SDS011;3471;49.678;8.388;2023-04-24T07:52:37;2.20;;;2.00;;
6864;SDS011;3471;49.678;8.388;2023-04-24T07:55:03;3.23;;;2.60;;
6864;SDS011;3471;49.678;8.388;2023-04-24T07:57:28;3.92;;;3.08;;
6864;SDS011;3471;49.678;8.388;2023-04-24T07:59:54;6.40;;;2.77;;
6864;SDS011;3471;49.678;8.388;2023-04-24T08:02:20;3.78;;;2.67;;
6864;SDS011;3471;49.678;8.388;2023-04-24T08:04:51;3.20;;;2.95;;
6864;SDS011;3471;49.678;8.388;2023-04-24T08:07:20;5.30;;;3.10;;
6864;SDS011;3471;49.678;8.388;2023-04-24T08:09:45;3.80;;;2.40;;
6864;SDS011;3471;49.678;8.388;2023-04-24T08:12:11;2.10;;;1.85;;
6864;SDS011;3471;49.678;8.388;2023-04-24T08:14:37;2.77;;;2.47;;
6864;SDS011;3471;49.678;8.388;2023-04-24T08:17:02;2.57;;;2.20;;
6864;SDS011;3471;49.678;8.388;2023-04-24T08:19:28;2.50;;;2.30;;
6864;SDS011;3471;49.678;8.388;2023-04-24T08:21:54;2.70;;;2.50;;
6864;SDS011;3471;49.678;8.388;2023-04-24T08:24:19;2.97;;;2.17;;
6864;SDS011;3471;49.678;8.388;2023-04-24T08:26:45;3.45;;;3.15;;
6864;SDS011;3471;49.678;8.388;2023-04-24T08:29:11;10.00;;;2.47;;
6864;SDS011;3471;49.678;8.388;2023-04-24T08:31:36;2.58;;;2.38;;
6864;SDS011;3471;49.678;8.388;2023-04-24T08:34:02;2.85;;;2.65;;
6864;SDS011;3471;49.678;8.388;2023-04-24T08:36:28;4.50;;;2.28;;
6864;SDS011;3471;49.678;8.388;2023-04-24T08:38:53;2.50;;;2.30;;
6864;SDS011;3471;49.678;8.388;2023-04-24T08:41:19;6.03;;;3.30;;
6864;SDS011;3471;49.678;8.388;2023-04-24T08:43:46;4.50;;;3.08;;
6864;SDS011;3471;49.678;8.388;2023-04-24T08:46:13;7.13;;;2.65;;
6864;SDS011;3471;49.678;8.388;2023-04-24T08:48:40;5.68;;;3.80;;
6864;SDS011;3471;49.678;8.388;2023-04-24T08:51:07;3.20;;;3.00;;
6864;SDS011;3471;49.678;8.388;2023-04-24T08:53:33;4.80;;;3.53;;
6864;SDS011;3471;49.678;8.388;2023-04-24T08:55:59;5.88;;;3.58;;
6864;SDS011;3471;49.678;8.388;2023-04-24T08:58:26;4.05;;;2.58;;
6864;SDS011;3471;49.678;8.388;2023-04-24T09:00:54;7.60;;;3.50;;
6864;SDS011;3471;49.678;8.388;2023-04-24T09:03:20;4.50;;;3.30;;
6864;SDS011;3471;49.678;8.388;2023-04-24T09:05:47;7.03;;;3.00;;
6864;SDS011;3471;49.678;8.388;2023-04-24T09:08:14;3.27;;;2.97;;
6864;SDS011;3471;49.678;8.388;2023-04-24T09:10:42;4.22;;;3.78;;
6864;SDS011;3471;49.678;8.388;2023-04-24T09:13:08;7.93;;;3.23;;
6864;SDS011;3471;49.678;8.388;2023-04-24T09:15:35;3.85;;;3.22;;
6864;SDS011;3471;49.678;8.388;2023-04-24T09:18:01;3.97;;;3.58;;
6864;SDS011;3471;49.678;8.388;2023-04-24T09:20:27;7.40;;;3.22;;
6864;SDS011;3471;49.678;8.388;2023-04-24T09:22:59;8.30;;;3.97;;
6864;SDS011;3471;49.678;8.388;2023-04-24T09:25:30;3.70;;;3.40;;
6864;SDS011;3471;49.678;8.388;2023-04-24T09:27:59;5.97;;;3.97;;
6864;SDS011;3471;49.678;8.388;2023-04-24T09:30:27;6.20;;;3.75;;
6864;SDS011;3471;49.678;8.388;2023-04-24T09:33:15;5.80;;;3.50;;
6864;SDS011;3471;49.678;8.388;2023-04-24T09:35:50;4.50;;;3.30;;
6864;SDS011;3471;49.678;8.388;2023-04-24T09:38:16;3.15;;;2.50;;
6864;SDS011;3471;49.678;8.388;2023-04-24T09:40:42;4.28;;;3.25;;
6864;SDS011;3471;49.678;8.388;2023-04-24T09:43:11;2.40;;;2.20;;
6864;SDS011;3471;49.678;8.388;2023-04-24T09:45:37;3.22;;;2.92;;
6864;SDS011;3471;49.678;8.388;2023-04-24T09:48:04;4.00;;;2.50;;
6864;SDS011;3471;49.678;8.388;2023-04-24T09:50:31;3.33;;;2.10;;
6864;SDS011;3471;49.678;8.388;2023-04-24T09:52:59;2.50;;;2.00;;
6864;SDS011;3471;49.678;8.388;2023-04-24T09:55:27;2.90;;;2.20;;
6864;SDS011;3471;49.678;8.388;2023-04-24T09:57:59;1.88;;;1.77;;
6864;SDS011;3471;49.678;8.388;2023-04-24T10:00:28;5.80;;;2.28;;
6864;SDS011;3471;49.678;8.388;2023-04-24T10:03:02;3.85;;;2.80;;
6864;SDS011;3471;49.678;8.388;2023-04-24T10:05:33;2.40;;;2.20;;
6864;SDS011;3471;49.678;8.388;2023-04-24T10:08:01;12.18;;;3.05;;
6864;SDS011;3471;49.678;8.388;2023-04-24T10:10:33;6.10;;;2.75;;
6864;SDS011;3471;49.678;8.388;2023-04-24T10:13:03;5.65;;;2.42;;
6864;SDS011;3471;49.678;8.388;2023-04-24T10:15:29;3.10;;;2.53;;
6864;SDS011;3471;49.678;8.388;2023-04-24T10:17:55;4.15;;;3.58;;
6864;SDS011;3471;49.678;8.388;2023-04-24T10:20:24;4.40;;;3.87;;
6864;SDS011;3471;49.678;8.388;2023-04-24T10:22:54;3.78;;;2.55;;
6864;SDS011;3471;49.678;8.388;2023-04-24T10:25:21;6.82;;;2.65;;
6864;SDS011;3471;49.678;8.388;2023-04-24T10:27:51;2.75;;;2.55;;
6864;SDS011;3471;49.678;8.388;2023-04-24T10:30:19;5.70;;;3.33;;
6864;SDS011;3471;49.678;8.388;2023-04-24T10:32:45;3.20;;;2.45;;
6864;SDS011;3471;49.678;8.388;2023-04-24T10:35:14;6.20;;;2.50;;
6864;SDS011;3471;49.678;8.388;2023-04-24T10:37:43;3.25;;;1.70;;
6864;SDS011;3471;49.678;8.388;2023-04-24T10:40:12;3.53;;;2.72;;
6864;SDS011;3471;49.678;8.388;2023-04-24T10:42:42;6.63;;;3.42;;
6864;SDS011;3471;49.678;8.388;2023-04-24T10:45:16;2.92;;;2.70;;
6864;SDS011;3471;49.678;8.388;2023-04-24T10:47:43;3.65;;;2.22;;
6864;SDS011;3471;49.678;8.388;2023-04-24T10:50:21;4.25;;;3.10;;
6864;SDS011;3471;49.678;8.388;2023-04-24T10:52:47;2.80;;;1.90;;
6864;SDS011;3471;49.678;8.388;2023-04-24T10:55:16;3.55;;;2.22;;
6864;SDS011;3471;49.678;8.388;2023-04-24T10:58:05;2.50;;;2.30;;
6864;SDS011;3471;49.678;8.388;2023-04-24T11:00:30;5.55;;;3.80;;
6864;SDS011;3471;49.678;8.388;2023-04-24T11:02:56;7.00;;;3.40;;
6864;SDS011;3471;49.678;8.388;2023-04-24T11:05:22;3.60;;;2.45;;
6864;SDS011;3471;49.678;8.388;2023-04-24T11:08:09;3.30;;;2.95;;
6864;SDS011;3471;49.678;8.388;2023-04-24T11:10:45;5.60;;;3.47;;
6864;SDS011;3471;49.678;8.388;2023-04-24T11:13:23;8.23;;;3.20;;
6864;SDS011;3471;49.678;8.388;2023-04-24T11:21:25;3.53;;;3.10;;
6864;SDS011;3471;49.678;8.388;2023-04-24T11:26:51;3.75;;;2.95;;
6864;SDS011;3471;49.678;8.388;2023-04-24T11:29:22;4.82;;;2.80;;
6864;SDS011;3471;49.678;8.388;2023-04-24T11:31:48;9.77;;;3.33;;
6864;SDS011;3471;49.678;8.388;2023-04-24T11:34:16;5.85;;;3.15;;
6864;SDS011;3471;49.678;8.388;2023-04-24T11:36:43;4.60;;;3.90;;
6864;SDS011;3471;49.678;8.388;2023-04-24T11:39:10;9.13;;;3.50;;
6864;SDS011;3471;49.678;8.388;2023-04-24T11:41:36;4.68;;;3.58;;
6864;SDS011;3471;49.678;8.388;2023-04-24T11:44:03;7.60;;;4.10;;
6864;SDS011;3471;49.678;8.388;2023-04-24T11:46:31;8.50;;;4.35;;
6864;SDS011;3471;49.678;8.388;2023-04-24T11:48:57;5.80;;;4.40;;
6864;SDS011;3471;49.678;8.388;2023-04-24T11:51:25;5.10;;;4.30;;
6864;SDS011;3471;49.678;8.388;2023-04-24T11:53:55;8.23;;;3.72;;
6864;SDS011;3471;49.678;8.388;2023-04-24T11:56:21;7.80;;;4.30;;
6864;SDS011;3471;49.678;8.388;2023-04-24T11:58:53;5.57;;;3.87;;
6864;SDS011;3471;49.678;8.388;2023-04-24T12:01:19;5.93;;;3.58;;
6864;SDS011;3471;49.678;8.388;2023-04-24T12:03:49;4.88;;;3.88;;
6864;SDS011;3471;49.678;8.388;2023-04-24T12:06:18;5.28;;;3.63;;
6864;SDS011;3471;49.678;8.388;2023-04-24T12:08:47;6.30;;;3.47;;
6864;SDS011;3471;49.678;8.388;2023-04-24T12:11:14;5.60;;;4.90;;
6864;SDS011;3471;49.678;8.388;2023-04-24T12:13:42;4.20;;;3.80;;
6864;SDS011;3471;49.678;8.388;2023-04-24T12:16:08;8.55;;;4.30;;
6864;SDS011;3471;49.678;8.388;2023-04-24T12:18:34;7.23;;;4.67;;
6864;SDS011;3471;49.678;8.388;2023-04-24T12:21:21;9.40;;;4.30;;
6864;SDS011;3471;49.678;8.388;2023-04-24T12:23:46;7.35;;;4.43;;
6864;SDS011;3471;49.678;8.388;2023-04-24T12:26:16;4.38;;;3.97;;
6864;SDS011;3471;49.678;8.388;2023-04-24T12:28:45;9.05;;;4.65;;
6864;SDS011;3471;49.678;8.388;2023-04-24T12:31:13;4.10;;;3.17;;
6864;SDS011;3471;49.678;8.388;2023-04-24T12:33:39;4.57;;;4.22;;
6864;SDS011;3471;49.678;8.388;2023-04-24T12:36:04;9.30;;;4.50;;
6864;SDS011;3471;49.678;8.388;2023-04-24T12:38:31;4.18;;;3.88;;
6864;SDS011;3471;49.678;8.388;2023-04-24T12:41:08;18.15;;;5.97;;
6864;SDS011;3471;49.678;8.388;2023-04-24T12:43:36;4.07;;;3.67;;
6864;SDS011;3471;49.678;8.388;2023-04-24T12:46:02;9.07;;;4.17;;
6864;SDS011;3471;49.678;8.388;2023-04-24T12:48:28;5.22;;;4.22;;
6864;SDS011;3471;49.678;8.388;2023-04-24T12:50:56;3.83;;;3.42;;
6864;SDS011;3471;49.678;8.388;2023-04-24T12:53:25;6.60;;;3.95;;
6864;SDS011;3471;49.678;8.388;2023-04-24T12:55:51;3.65;;;3.10;;
6864;SDS011;3471;49.678;8.388;2023-04-24T12:58:20;5.30;;;4.57;;
6864;SDS011;3471;49.678;8.388;2023-04-24T13:00:46;4.00;;;3.70;;
6864;SDS011;3471;49.678;8.388;2023-04-24T13:03:12;7.13;;;4.93;;
6864;SDS011;3471;49.678;8.388;2023-04-24T13:05:38;3.80;;;3.50;;
6864;SDS011;3471;49.678;8.388;2023-04-24T13:08:04;5.90;;;3.50;;
6864;SDS011;3471;49.678;8.388;2023-04-24T13:10:30;4.63;;;3.60;;
6864;SDS011;3471;49.678;8.388;2023-04-24T13:12:56;6.67;;;3.23;;
6864;SDS011;3471;49.678;8.388;2023-04-24T13:15:22;4.47;;;3.38;;
6864;SDS011;3471;49.678;8.388;2023-04-24T13:17:47;8.50;;;4.03;;
6864;SDS011;3471;49.678;8.388;2023-04-24T13:20:13;3.95;;;2.80;;
6864;SDS011;3471;49.678;8.388;2023-04-24T13:22:38;3.70;;;3.35;;
6864;SDS011;3471;49.678;8.388;2023-04-24T13:25:04;4.10;;;3.70;;
6864;SDS011;3471;49.678;8.388;2023-04-24T13:27:31;3.38;;;3.08;;
6864;SDS011;3471;49.678;8.388;2023-04-24T13:29:56;3.23;;;2.90;;
6864;SDS011;3471;49.678;8.388;2023-04-24T13:32:22;4.10;;;3.40;;
6864;SDS011;3471;49.678;8.388;2023-04-24T13:34:47;3.65;;;3.35;;
6864;SDS011;3471;49.678;8.388;2023-04-24T13:37:13;4.13;;;3.72;;
6864;SDS011;3471;49.678;8.388;2023-04-24T13:39:38;14.65;;;3.88;;
6864;SDS011;3471;49.678;8.388;2023-04-24T13:42:06;6.97;;;2.63;;
6864;SDS011;3471;49.678;8.388;2023-04-24T13:44:31;3.40;;;2.50;;
6864;SDS011;3471;49.678;8.388;2023-04-24T13:46:57;5.03;;;3.53;;
6864;SDS011;3471;49.678;8.388;2023-04-24T13:49:23;7.95;;;4.07;;
6864;SDS011;3471;49.678;8.388;2023-04-24T13:51:50;5.13;;;3.38;;
6864;SDS011;3471;49.678;8.388;2023-04-24T13:54:16;3.83;;;3.50;;
6864;SDS011;3471;49.678;8.388;2023-04-24T13:56:42;6.32;;;3.38;;
6864;SDS011;3471;49.678;8.388;2023-04-24T13:59:08;5.75;;;3.38;;
6864;SDS011;3471;49.678;8.388;2023-04-24T14:01:33;8.10;;;3.13;;
6864;SDS011;3471;49.678;8.388;2023-04-24T14:03:59;3.80;;;2.23;;
6864;SDS011;3471;49.678;8.388;2023-04-24T14:06:25;8.40;;;2.33;;
6864;SDS011;3471;49.678;8.388;2023-04-24T14:08:51;2.95;;;2.45;;
6864;SDS011;3471;49.678;8.388;2023-04-24T14:11:17;3.13;;;2.83;;
6864;SDS011;3471;49.678;8.388;2023-04-24T14:13:43;3.20;;;2.80;;
6864;SDS011;3471;49.678;8.388;2023-04-24T14:16:10;5.53;;;3.50;;
6864;SDS011;3471;49.678;8.388;2023-04-24T14:18:36;3.00;;;2.70;;
6864;SDS011;3471;49.678;8.388;2023-04-24T14:21:02;3.20;;;2.90;;
6864;SDS011;3471;49.678;8.388;2023-04-24T14:23:28;5.27;;;4.00;;
6864;SDS011;3471;49.678;8.388;2023-04-24T14:25:54;3.40;;;3.10;;
6864;SDS011;3471;49.678;8.388;2023-04-24T14:28:20;3.97;;;3.38;;
6864;SDS011;3471;49.678;8.388;2023-04-24T14:30:46;3.70;;;3.10;;
6864;SDS011;3471;49.678;8.388;2023-04-24T14:33:12;3.97;;;3.20;;
6864;SDS011;3471;49.678;8.388;2023-04-24T14:35:38;10.45;;;3.22;;
6864;SDS011;3471;49.678;8.388;2023-04-24T14:38:06;3.80;;;3.17;;
6864;SDS011;3471;49.678;8.388;2023-04-24T14:40:32;6.53;;;3.38;;
6864;SDS011;3471;49.678;8.388;2023-04-24T14:42:58;4.40;;;4.00;;
6864;SDS011;3471;49.678;8.388;2023-04-24T14:45:26;3.67;;;3.33;;
6864;SDS011;3471;49.678;8.388;2023-04-24T14:47:53;6.30;;;2.83;;
6864;SDS011;3471;49.678;8.388;2023-04-24T14:50:19;7.75;;;3.88;;
6864;SDS011;3471;49.678;8.388;2023-04-24T14:52:45;3.63;;;2.83;;
6864;SDS011;3471;49.678;8.388;2023-04-24T14:55:11;5.70;;;3.60;;
6864;SDS011;3471;49.678;8.388;2023-04-24T14:57:37;6.10;;;5.20;;
6864;SDS011;3471;49.678;8.388;2023-04-24T15:00:03;5.32;;;3.72;;
6864;SDS011;3471;49.678;8.388;2023-04-24T15:02:31;4.47;;;2.70;;
6864;SDS011;3471;49.678;8.388;2023-04-24T15:04:57;6.55;;;4.90;;
6864;SDS011;3471;49.678;8.388;2023-04-24T15:07:23;4.55;;;3.35;;
6864;SDS011;3471;49.678;8.388;2023-04-24T15:09:49;4.47;;;3.20;;
6864;SDS011;3471;49.678;8.388;2023-04-24T15:12:15;4.40;;;4.00;;
6864;SDS011;3471;49.678;8.388;2023-04-24T15:14:40;4.47;;;3.97;;
6864;SDS011;3471;49.678;8.388;2023-04-24T15:17:06;5.70;;;4.10;;
6864;SDS011;3471;49.678;8.388;2023-04-24T15:19:31;4.40;;;3.58;;